Terminal Aerodrome Forecast
Issued by NWS Tulsa, OK

Home | Current Version | Previous Version | Text Only | Print | Product List | Glossary On
Versions: 1 2 3 4 5 6 7 8 9 10 11 12 13 14
000
FTUS44 KTSA 041246 AAA
TAFTUL
TAF AMD
KTUL 041246Z 0413/0512 04003KT P6SM BKN006
      TEMPO 0413/0415 SCT005
     FM041500 08005KT P6SM SCT020
     FM041800 14006KT P6SM SCT050
     FM050100 17006KT P6SM SCT250=

USA.gov is the U.S. government's official web portal to all federal, state and local government web resources and services.